sensor_id;sensor_type;location;lat;lon;timestamp;P1;durP1;ratioP1;P2;durP2;ratioP2
46080;SDS011;31821;51.880;-0.518;2022-08-04T00:01:52;2.08;;;1.33;;
46080;SDS011;31821;51.880;-0.518;2022-08-04T00:04:32;1.75;;;1.30;;
46080;SDS011;31821;51.880;-0.518;2022-08-04T00:07:08;2.28;;;1.45;;
46080;SDS011;31821;51.880;-0.518;2022-08-04T00:09:46;1.55;;;1.23;;
46080;SDS011;31821;51.880;-0.518;2022-08-04T00:12:16;1.42;;;1.20;;
46080;SDS011;31821;51.880;-0.518;2022-08-04T00:14:48;2.45;;;1.50;;
46080;SDS011;31821;51.880;-0.518;2022-08-04T00:17:19;2.58;;;1.50;;
46080;SDS011;31821;51.880;-0.518;2022-08-04T00:19:48;1.90;;;1.38;;
46080;SDS011;31821;51.880;-0.518;2022-08-04T00:22:22;1.60;;;1.30;;
46080;SDS011;31821;51.880;-0.518;2022-08-04T00:24:51;1.65;;;1.42;;
46080;SDS011;31821;51.880;-0.518;2022-08-04T00:27:19;2.00;;;1.38;;
46080;SDS011;31821;51.880;-0.518;2022-08-04T00:29:44;2.33;;;1.42;;
46080;SDS011;31821;51.880;-0.518;2022-08-04T00:32:11;2.40;;;1.70;;
46080;SDS011;31821;51.880;-0.518;2022-08-04T00:34:37;1.75;;;1.38;;
46080;SDS011;31821;51.880;-0.518;2022-08-04T00:37:04;1.92;;;1.35;;
46080;SDS011;31821;51.880;-0.518;2022-08-04T00:39:31;1.77;;;1.30;;
46080;SDS011;31821;51.880;-0.518;2022-08-04T00:53:48;2.10;;;1.17;;
46080;SDS011;31821;51.880;-0.518;2022-08-04T01:04:28;2.28;;;1.20;;
46080;SDS011;31821;51.880;-0.518;2022-08-04T01:07:11;2.10;;;1.42;;
46080;SDS011;31821;51.880;-0.518;2022-08-04T01:12:42;2.08;;;1.60;;
46080;SDS011;31821;51.880;-0.518;2022-08-04T01:15:39;1.77;;;1.33;;
46080;SDS011;31821;51.880;-0.518;2022-08-04T01:18:56;1.70;;;1.40;;
46080;SDS011;31821;51.880;-0.518;2022-08-04T01:21:20;1.88;;;1.20;;
46080;SDS011;31821;51.880;-0.518;2022-08-04T01:29:06;1.60;;;1.17;;
46080;SDS011;31821;51.880;-0.518;2022-08-04T01:31:39;2.15;;;1.60;;
46080;SDS011;31821;51.880;-0.518;2022-08-04T01:34:06;1.90;;;1.38;;
46080;SDS011;31821;51.880;-0.518;2022-08-04T01:36:36;2.50;;;1.63;;
46080;SDS011;31821;51.880;-0.518;2022-08-04T01:39:11;2.65;;;1.33;;
46080;SDS011;31821;51.880;-0.518;2022-08-04T01:41:56;1.70;;;1.40;;
46080;SDS011;31821;51.880;-0.518;2022-08-04T01:44:25;1.48;;;1.33;;
46080;SDS011;31821;51.880;-0.518;2022-08-04T01:46:53;1.40;;;1.25;;
46080;SDS011;31821;51.880;-0.518;2022-08-04T01:49:20;1.60;;;1.30;;
46080;SDS011;31821;51.880;-0.518;2022-08-04T01:51:50;2.08;;;1.35;;
46080;SDS011;31821;51.880;-0.518;2022-08-04T01:54:18;1.85;;;1.50;;
46080;SDS011;31821;51.880;-0.518;2022-08-04T01:56:45;1.50;;;1.30;;
46080;SDS011;31821;51.880;-0.518;2022-08-04T01:59:14;1.40;;;1.30;;
46080;SDS011;31821;51.880;-0.518;2022-08-04T02:01:42;1.67;;;1.38;;
46080;SDS011;31821;51.880;-0.518;2022-08-04T02:04:12;2.17;;;1.65;;
46080;SDS011;31821;51.880;-0.518;2022-08-04T02:07:01;1.95;;;1.50;;
46080;SDS011;31821;51.880;-0.518;2022-08-04T02:20:51;1.38;;;1.27;;
46080;SDS011;31821;51.880;-0.518;2022-08-04T02:23:42;1.98;;;1.45;;
46080;SDS011;31821;51.880;-0.518;2022-08-04T02:26:17;1.60;;;1.40;;
46080;SDS011;31821;51.880;-0.518;2022-08-04T02:34:30;1.55;;;1.42;;
46080;SDS011;31821;51.880;-0.518;2022-08-04T02:37:11;1.85;;;1.55;;
46080;SDS011;31821;51.880;-0.518;2022-08-04T02:39:41;1.95;;;1.65;;
46080;SDS011;31821;51.880;-0.518;2022-08-04T02:42:08;1.95;;;1.40;;
46080;SDS011;31821;51.880;-0.518;2022-08-04T02:44:36;1.90;;;1.60;;
46080;SDS011;31821;51.880;-0.518;2022-08-04T02:47:03;1.65;;;1.40;;
46080;SDS011;31821;51.880;-0.518;2022-08-04T02:49:30;2.15;;;1.55;;
46080;SDS011;31821;51.880;-0.518;2022-08-04T02:52:01;1.63;;;1.50;;
46080;SDS011;31821;51.880;-0.518;2022-08-04T02:54:31;2.15;;;1.70;;
46080;SDS011;31821;51.880;-0.518;2022-08-04T02:56:59;1.70;;;1.40;;
46080;SDS011;31821;51.880;-0.518;2022-08-04T02:59:26;1.83;;;1.48;;
46080;SDS011;31821;51.880;-0.518;2022-08-04T03:02:00;1.83;;;1.55;;
46080;SDS011;31821;51.880;-0.518;2022-08-04T03:13:33;2.45;;;1.63;;
46080;SDS011;31821;51.880;-0.518;2022-08-04T03:30:18;1.95;;;1.73;;
46080;SDS011;31821;51.880;-0.518;2022-08-04T03:33:08;2.50;;;1.40;;
46080;SDS011;31821;51.880;-0.518;2022-08-04T03:53:08;1.58;;;1.40;;
46080;SDS011;31821;51.880;-0.518;2022-08-04T03:58:35;2.47;;;1.58;;
46080;SDS011;31821;51.880;-0.518;2022-08-04T04:23:56;1.95;;;1.40;;
46080;SDS011;31821;51.880;-0.518;2022-08-04T04:32:16;1.80;;;1.60;;
46080;SDS011;31821;51.880;-0.518;2022-08-04T04:38:39;2.13;;;1.48;;
46080;SDS011;31821;51.880;-0.518;2022-08-04T04:41:20;1.85;;;1.60;;
46080;SDS011;31821;51.880;-0.518;2022-08-04T04:44:15;2.42;;;1.42;;
46080;SDS011;31821;51.880;-0.518;2022-08-04T04:46:45;2.00;;;1.50;;
46080;SDS011;31821;51.880;-0.518;2022-08-04T04:52:20;2.22;;;1.67;;
46080;SDS011;31821;51.880;-0.518;2022-08-04T04:55:03;2.53;;;1.73;;
46080;SDS011;31821;51.880;-0.518;2022-08-04T04:57:40;2.10;;;1.50;;
46080;SDS011;31821;51.880;-0.518;2022-08-04T05:00:07;2.13;;;1.60;;
46080;SDS011;31821;51.880;-0.518;2022-08-04T05:17:33;1.85;;;1.40;;
46080;SDS011;31821;51.880;-0.518;2022-08-04T05:20:04;2.20;;;1.70;;
46080;SDS011;31821;51.880;-0.518;2022-08-04T05:25:18;1.85;;;1.60;;
46080;SDS011;31821;51.880;-0.518;2022-08-04T05:28:02;3.40;;;1.83;;
46080;SDS011;31821;51.880;-0.518;2022-08-04T05:30:32;2.05;;;1.45;;
46080;SDS011;31821;51.880;-0.518;2022-08-04T05:33:02;1.77;;;1.40;;
46080;SDS011;31821;51.880;-0.518;2022-08-04T05:35:51;2.75;;;1.60;;
46080;SDS011;31821;51.880;-0.518;2022-08-04T05:38:21;2.47;;;1.42;;
46080;SDS011;31821;51.880;-0.518;2022-08-04T05:40:50;2.65;;;1.65;;
46080;SDS011;31821;51.880;-0.518;2022-08-04T05:43:18;3.03;;;1.90;;
46080;SDS011;31821;51.880;-0.518;2022-08-04T05:45:45;1.80;;;1.40;;
46080;SDS011;31821;51.880;-0.518;2022-08-04T05:48:12;2.33;;;1.30;;
46080;SDS011;31821;51.880;-0.518;2022-08-04T05:50:38;2.25;;;1.50;;
46080;SDS011;31821;51.880;-0.518;2022-08-04T05:53:05;3.65;;;1.80;;
46080;SDS011;31821;51.880;-0.518;2022-08-04T05:55:32;2.40;;;1.50;;
46080;SDS011;31821;51.880;-0.518;2022-08-04T05:57:58;2.67;;;1.67;;
46080;SDS011;31821;51.880;-0.518;2022-08-04T06:00:26;2.58;;;1.60;;
46080;SDS011;31821;51.880;-0.518;2022-08-04T06:02:53;2.08;;;1.30;;
46080;SDS011;31821;51.880;-0.518;2022-08-04T06:05:21;3.05;;;1.60;;
46080;SDS011;31821;51.880;-0.518;2022-08-04T06:07:48;2.33;;;1.70;;
46080;SDS011;31821;51.880;-0.518;2022-08-04T06:10:14;3.15;;;1.55;;
46080;SDS011;31821;51.880;-0.518;2022-08-04T06:12:45;2.33;;;1.45;;
46080;SDS011;31821;51.880;-0.518;2022-08-04T06:15:16;2.13;;;1.60;;
46080;SDS011;31821;51.880;-0.518;2022-08-04T06:17:56;2.38;;;1.48;;
46080;SDS011;31821;51.880;-0.518;2022-08-04T06:20:27;2.92;;;1.60;;
46080;SDS011;31821;51.880;-0.518;2022-08-04T06:22:56;2.53;;;1.40;;
46080;SDS011;31821;51.880;-0.518;2022-08-04T06:25:25;2.55;;;1.35;;
46080;SDS011;31821;51.880;-0.518;2022-08-04T06:27:55;2.08;;;1.40;;
46080;SDS011;31821;51.880;-0.518;2022-08-04T06:30:22;2.75;;;1.60;;
46080;SDS011;31821;51.880;-0.518;2022-08-04T06:32:50;1.77;;;1.48;;
46080;SDS011;31821;51.880;-0.518;2022-08-04T06:35:20;2.28;;;1.42;;
46080;SDS011;31821;51.880;-0.518;2022-08-04T06:37:47;2.63;;;1.60;;
46080;SDS011;31821;51.880;-0.518;2022-08-04T06:40:15;1.83;;;1.42;;
46080;SDS011;31821;51.880;-0.518;2022-08-04T06:42:42;2.20;;;1.70;;
46080;SDS011;31821;51.880;-0.518;2022-08-04T06:45:10;2.63;;;1.67;;
46080;SDS011;31821;51.880;-0.518;2022-08-04T06:47:38;2.88;;;1.55;;
46080;SDS011;31821;51.880;-0.518;2022-08-04T06:50:06;2.15;;;1.63;;
46080;SDS011;31821;51.880;-0.518;2022-08-04T06:52:33;2.63;;;1.50;;
46080;SDS011;31821;51.880;-0.518;2022-08-04T06:54:59;2.60;;;1.45;;
46080;SDS011;31821;51.880;-0.518;2022-08-04T06:57:28;2.53;;;1.33;;
46080;SDS011;31821;51.880;-0.518;2022-08-04T06:59:56;2.65;;;1.75;;
46080;SDS011;31821;51.880;-0.518;2022-08-04T07:02:29;1.65;;;1.48;;
46080;SDS011;31821;51.880;-0.518;2022-08-04T07:04:58;1.98;;;1.38;;
46080;SDS011;31821;51.880;-0.518;2022-08-04T07:07:24;1.60;;;1.30;;
46080;SDS011;31821;51.880;-0.518;2022-08-04T07:09:50;3.05;;;1.67;;
46080;SDS011;31821;51.880;-0.518;2022-08-04T07:12:16;1.90;;;1.50;;
46080;SDS011;31821;51.880;-0.518;2022-08-04T07:14:45;1.70;;;1.33;;
46080;SDS011;31821;51.880;-0.518;2022-08-04T07:17:13;1.95;;;1.30;;
46080;SDS011;31821;51.880;-0.518;2022-08-04T07:19:41;1.80;;;1.40;;
46080;SDS011;31821;51.880;-0.518;2022-08-04T07:22:08;2.20;;;1.35;;
46080;SDS011;31821;51.880;-0.518;2022-08-04T07:24:35;1.88;;;1.20;;
46080;SDS011;31821;51.880;-0.518;2022-08-04T07:27:02;2.47;;;1.35;;
46080;SDS011;31821;51.880;-0.518;2022-08-04T07:29:29;2.03;;;1.30;;
46080;SDS011;31821;51.880;-0.518;2022-08-04T07:31:55;1.40;;;1.20;;
46080;SDS011;31821;51.880;-0.518;2022-08-04T07:34:21;1.50;;;1.15;;
46080;SDS011;31821;51.880;-0.518;2022-08-04T07:36:50;2.08;;;1.38;;
46080;SDS011;31821;51.880;-0.518;2022-08-04T07:39:17;1.27;;;1.10;;
46080;SDS011;31821;51.880;-0.518;2022-08-04T07:41:43;1.60;;;1.30;;
46080;SDS011;31821;51.880;-0.518;2022-08-04T07:44:09;1.67;;;1.20;;
46080;SDS011;31821;51.880;-0.518;2022-08-04T07:46:38;1.63;;;1.25;;
46080;SDS011;31821;51.880;-0.518;2022-08-04T07:49:05;2.33;;;1.40;;
46080;SDS011;31821;51.880;-0.518;2022-08-04T07:51:31;2.30;;;1.48;;
46080;SDS011;31821;51.880;-0.518;2022-08-04T07:53:59;2.33;;;1.48;;
46080;SDS011;31821;51.880;-0.518;2022-08-04T07:56:27;2.92;;;1.55;;
46080;SDS011;31821;51.880;-0.518;2022-08-04T07:58:53;1.42;;;1.10;;
46080;SDS011;31821;51.880;-0.518;2022-08-04T08:01:19;3.15;;;1.50;;
46080;SDS011;31821;51.880;-0.518;2022-08-04T08:03:45;4.60;;;1.17;;
46080;SDS011;31821;51.880;-0.518;2022-08-04T08:06:12;4.88;;;1.20;;
46080;SDS011;31821;51.880;-0.518;2022-08-04T08:08:38;3.55;;;1.05;;
46080;SDS011;31821;51.880;-0.518;2022-08-04T08:11:04;4.40;;;1.70;;
46080;SDS011;31821;51.880;-0.518;2022-08-04T08:13:31;3.33;;;1.40;;
46080;SDS011;31821;51.880;-0.518;2022-08-04T08:15:57;3.33;;;1.20;;
46080;SDS011;31821;51.880;-0.518;2022-08-04T08:18:24;1.92;;;1.10;;
46080;SDS011;31821;51.880;-0.518;2022-08-04T08:20:49;2.75;;;1.15;;
46080;SDS011;31821;51.880;-0.518;2022-08-04T08:23:17;3.58;;;1.40;;
46080;SDS011;31821;51.880;-0.518;2022-08-04T08:25:43;3.38;;;1.15;;
46080;SDS011;31821;51.880;-0.518;2022-08-04T08:28:09;4.90;;;1.30;;
46080;SDS011;31821;51.880;-0.518;2022-08-04T08:30:35;2.67;;;1.10;;
46080;SDS011;31821;51.880;-0.518;2022-08-04T08:33:06;2.38;;;0.88;;
46080;SDS011;31821;51.880;-0.518;2022-08-04T08:38:17;2.58;;;1.20;;
46080;SDS011;31821;51.880;-0.518;2022-08-04T08:40:58;2.97;;;1.35;;
46080;SDS011;31821;51.880;-0.518;2022-08-04T08:43:50;4.47;;;1.20;;
46080;SDS011;31821;51.880;-0.518;2022-08-04T08:46:38;2.13;;;1.10;;
46080;SDS011;31821;51.880;-0.518;2022-08-04T08:57:32;2.85;;;1.05;;
46080;SDS011;31821;51.880;-0.518;2022-08-04T09:00:19;3.42;;;1.10;;
46080;SDS011;31821;51.880;-0.518;2022-08-04T09:03:16;2.28;;;1.10;;
46080;SDS011;31821;51.880;-0.518;2022-08-04T09:11:27;4.28;;;1.40;;
46080;SDS011;31821;51.880;-0.518;2022-08-04T09:14:16;3.45;;;1.42;;
46080;SDS011;31821;51.880;-0.518;2022-08-04T09:16:50;2.65;;;1.35;;
46080;SDS011;31821;51.880;-0.518;2022-08-04T09:19:22;2.22;;;1.00;;
46080;SDS011;31821;51.880;-0.518;2022-08-04T09:22:00;3.08;;;1.40;;
46080;SDS011;31821;51.880;-0.518;2022-08-04T09:24:39;2.88;;;1.05;;
46080;SDS011;31821;51.880;-0.518;2022-08-04T09:35:47;3.08;;;1.27;;
46080;SDS011;31821;51.880;-0.518;2022-08-04T09:38:48;2.83;;;1.02;;
46080;SDS011;31821;51.880;-0.518;2022-08-04T09:50:21;5.63;;;1.50;;
46080;SDS011;31821;51.880;-0.518;2022-08-04T09:56:02;2.83;;;0.90;;
46080;SDS011;31821;51.880;-0.518;2022-08-04T10:01:19;2.10;;;0.90;;
46080;SDS011;31821;51.880;-0.518;2022-08-04T10:03:51;2.80;;;1.10;;
46080;SDS011;31821;51.880;-0.518;2022-08-04T10:09:19;1.50;;;0.70;;
46080;SDS011;31821;51.880;-0.518;2022-08-04T10:12:14;2.10;;;0.80;;
46080;SDS011;31821;51.880;-0.518;2022-08-04T10:14:50;2.92;;;1.50;;
46080;SDS011;31821;51.880;-0.518;2022-08-04T10:20:13;2.22;;;1.00;;
46080;SDS011;31821;51.880;-0.518;2022-08-04T10:22:45;1.75;;;0.90;;
46080;SDS011;31821;51.880;-0.518;2022-08-04T10:28:43;2.03;;;1.05;;
46080;SDS011;31821;51.880;-0.518;2022-08-04T10:31:21;1.35;;;0.70;;
46080;SDS011;31821;51.880;-0.518;2022-08-04T10:33:53;3.35;;;1.10;;
46080;SDS011;31821;51.880;-0.518;2022-08-04T10:36:27;1.58;;;1.10;;
46080;SDS011;31821;51.880;-0.518;2022-08-04T10:39:04;1.45;;;0.95;;
46080;SDS011;31821;51.880;-0.518;2022-08-04T10:45:02;2.15;;;1.00;;
46080;SDS011;31821;51.880;-0.518;2022-08-04T10:47:41;1.73;;;0.90;;
46080;SDS011;31821;51.880;-0.518;2022-08-04T10:50:15;1.85;;;1.08;;
46080;SDS011;31821;51.880;-0.518;2022-08-04T10:52:45;1.52;;;0.85;;
46080;SDS011;31821;51.880;-0.518;2022-08-04T10:55:20;2.30;;;0.75;;
46080;SDS011;31821;51.880;-0.518;2022-08-04T10:57:54;1.70;;;0.90;;
46080;SDS011;31821;51.880;-0.518;2022-08-04T11:00:25;1.33;;;0.85;;
46080;SDS011;31821;51.880;-0.518;2022-08-04T11:08:15;1.45;;;0.70;;
46080;SDS011;31821;51.880;-0.518;2022-08-04T11:11:04;2.03;;;1.10;;
46080;SDS011;31821;51.880;-0.518;2022-08-04T11:13:43;0.82;;;0.65;;
46080;SDS011;31821;51.880;-0.518;2022-08-04T11:16:16;0.85;;;0.70;;
46080;SDS011;31821;51.880;-0.518;2022-08-04T11:18:53;0.82;;;0.70;;
46080;SDS011;31821;51.880;-0.518;2022-08-04T11:21:37;0.93;;;0.70;;
46080;SDS011;31821;51.880;-0.518;2022-08-04T11:24:10;1.98;;;1.20;;
46080;SDS011;31821;51.880;-0.518;2022-08-04T11:26:48;1.48;;;0.95;;
46080;SDS011;31821;51.880;-0.518;2022-08-04T11:32:15;0.90;;;0.70;;
46080;SDS011;31821;51.880;-0.518;2022-08-04T11:34:46;1.08;;;0.73;;
46080;SDS011;31821;51.880;-0.518;2022-08-04T11:37:16;1.05;;;0.75;;
46080;SDS011;31821;51.880;-0.518;2022-08-04T11:39:49;0.98;;;0.60;;
46080;SDS011;31821;51.880;-0.518;2022-08-04T11:42:22;1.92;;;0.77;;
46080;SDS011;31821;51.880;-0.518;2022-08-04T11:44:50;1.85;;;0.82;;
46080;SDS011;31821;51.880;-0.518;2022-08-04T11:49:57;1.02;;;0.75;;
46080;SDS011;31821;51.880;-0.518;2022-08-04T11:52:28;1.73;;;0.93;;
46080;SDS011;31821;51.880;-0.518;2022-08-04T11:54:56;1.10;;;0.70;;
46080;SDS011;31821;51.880;-0.518;2022-08-04T11:57:26;1.60;;;0.80;;
46080;SDS011;31821;51.880;-0.518;2022-08-04T11:59:54;0.65;;;0.63;;
46080;SDS011;31821;51.880;-0.518;2022-08-04T12:04:57;1.40;;;0.80;;
46080;SDS011;31821;51.880;-0.518;2022-08-04T12:13:30;1.05;;;0.77;;
46080;SDS011;31821;51.880;-0.518;2022-08-04T12:16:19;2.58;;;0.80;;
46080;SDS011;31821;51.880;-0.518;2022-08-04T12:21:38;1.30;;;0.80;;
46080;SDS011;31821;51.880;-0.518;2022-08-04T12:24:14;1.15;;;0.70;;
46080;SDS011;31821;51.880;-0.518;2022-08-04T12:26:44;1.25;;;0.65;;
46080;SDS011;31821;51.880;-0.518;2022-08-04T12:29:21;3.45;;;1.67;;
46080;SDS011;31821;51.880;-0.518;2022-08-04T12:31:51;2.22;;;0.77;;
46080;SDS011;31821;51.880;-0.518;2022-08-04T12:34:33;3.53;;;0.80;;
46080;SDS011;31821;51.880;-0.518;2022-08-04T12:37:12;1.63;;;0.80;;
46080;SDS011;31821;51.880;-0.518;2022-08-04T12:39:47;1.77;;;0.70;;
46080;SDS011;31821;51.880;-0.518;2022-08-04T12:42:18;1.08;;;0.68;;
46080;SDS011;31821;51.880;-0.518;2022-08-04T12:44:50;1.38;;;0.80;;
46080;SDS011;31821;51.880;-0.518;2022-08-04T12:47:22;1.20;;;0.80;;
46080;SDS011;31821;51.880;-0.518;2022-08-04T12:49:49;1.85;;;0.63;;
46080;SDS011;31821;51.880;-0.518;2022-08-04T12:52:17;1.25;;;0.80;;
46080;SDS011;31821;51.880;-0.518;2022-08-04T12:54:45;1.23;;;0.77;;
46080;SDS011;31821;51.880;-0.518;2022-08-04T12:57:16;1.52;;;0.80;;
46080;SDS011;31821;51.880;-0.518;2022-08-04T12:59:43;1.85;;;0.80;;
46080;SDS011;31821;51.880;-0.518;2022-08-04T13:02:16;2.90;;;0.80;;
46080;SDS011;31821;51.880;-0.518;2022-08-04T13:04:50;1.10;;;0.80;;
46080;SDS011;31821;51.880;-0.518;2022-08-04T13:07:19;1.20;;;0.80;;
46080;SDS011;31821;51.880;-0.518;2022-08-04T13:09:47;2.25;;;0.77;;
46080;SDS011;31821;51.880;-0.518;2022-08-04T13:12:15;1.98;;;0.98;;
46080;SDS011;31821;51.880;-0.518;2022-08-04T13:14:47;1.30;;;0.70;;
46080;SDS011;31821;51.880;-0.518;2022-08-04T13:17:14;1.90;;;0.90;;
46080;SDS011;31821;51.880;-0.518;2022-08-04T13:19:46;4.63;;;0.90;;
46080;SDS011;31821;51.880;-0.518;2022-08-04T13:22:22;1.88;;;0.85;;
46080;SDS011;31821;51.880;-0.518;2022-08-04T13:24:51;4.03;;;0.90;;
46080;SDS011;31821;51.880;-0.518;2022-08-04T13:27:18;2.42;;;0.80;;
46080;SDS011;31821;51.880;-0.518;2022-08-04T13:29:46;3.35;;;0.80;;
46080;SDS011;31821;51.880;-0.518;2022-08-04T13:32:18;1.27;;;0.70;;
46080;SDS011;31821;51.880;-0.518;2022-08-04T13:34:46;0.97;;;0.70;;
46080;SDS011;31821;51.880;-0.518;2022-08-04T13:37:15;1.85;;;0.90;;
46080;SDS011;31821;51.880;-0.518;2022-08-04T13:39:44;1.65;;;0.60;;
46080;SDS011;31821;51.880;-0.518;2022-08-04T13:42:12;1.48;;;0.63;;
46080;SDS011;31821;51.880;-0.518;2022-08-04T13:44:39;1.13;;;0.70;;
46080;SDS011;31821;51.880;-0.518;2022-08-04T13:47:08;1.52;;;0.80;;
46080;SDS011;31821;51.880;-0.518;2022-08-04T13:49:38;1.70;;;0.80;;
46080;SDS011;31821;51.880;-0.518;2022-08-04T13:52:05;0.77;;;0.68;;
46080;SDS011;31821;51.880;-0.518;2022-08-04T13:54:36;1.55;;;0.90;;
46080;SDS011;31821;51.880;-0.518;2022-08-04T13:57:04;0.90;;;0.70;;
46080;SDS011;31821;51.880;-0.518;2022-08-04T13:59:35;1.00;;;0.70;;
46080;SDS011;31821;51.880;-0.518;2022-08-04T14:02:07;1.92;;;0.70;;
46080;SDS011;31821;51.880;-0.518;2022-08-04T14:04:40;1.17;;;0.70;;
46080;SDS011;31821;51.880;-0.518;2022-08-04T14:07:15;1.38;;;0.88;;
46080;SDS011;31821;51.880;-0.518;2022-08-04T14:09:42;0.93;;;0.68;;
46080;SDS011;31821;51.880;-0.518;2022-08-04T14:12:10;3.20;;;0.80;;
46080;SDS011;31821;51.880;-0.518;2022-08-04T14:14:47;0.77;;;0.77;;
46080;SDS011;31821;51.880;-0.518;2022-08-04T14:17:15;1.30;;;0.90;;
46080;SDS011;31821;51.880;-0.518;2022-08-04T14:27:53;1.25;;;0.60;;
46080;SDS011;31821;51.880;-0.518;2022-08-04T14:35:22;1.25;;;0.70;;
46080;SDS011;31821;51.880;-0.518;2022-08-04T14:37:52;1.27;;;0.80;;
46080;SDS011;31821;51.880;-0.518;2022-08-04T14:40:25;1.42;;;0.70;;
46080;SDS011;31821;51.880;-0.518;2022-08-04T14:42:53;1.58;;;0.80;;
46080;SDS011;31821;51.880;-0.518;2022-08-04T14:45:23;1.95;;;0.70;;
46080;SDS011;31821;51.880;-0.518;2022-08-04T14:47:53;2.17;;;0.90;;
46080;SDS011;31821;51.880;-0.518;2022-08-04T14:50:19;2.28;;;0.90;;
46080;SDS011;31821;51.880;-0.518;2022-08-04T14:53:01;1.35;;;0.70;;
46080;SDS011;31821;51.880;-0.518;2022-08-04T14:55:29;1.25;;;0.90;;
46080;SDS011;31821;51.880;-0.518;2022-08-04T14:57:54;1.77;;;0.75;;
46080;SDS011;31821;51.880;-0.518;2022-08-04T15:00:24;2.30;;;0.60;;
46080;SDS011;31821;51.880;-0.518;2022-08-04T15:02:49;1.15;;;0.70;;
46080;SDS011;31821;51.880;-0.518;2022-08-04T15:05:16;1.60;;;0.80;;
46080;SDS011;31821;51.880;-0.518;2022-08-04T15:07:45;1.80;;;0.70;;
46080;SDS011;31821;51.880;-0.518;2022-08-04T15:10:10;0.93;;;0.60;;
46080;SDS011;31821;51.880;-0.518;2022-08-04T15:12:36;1.20;;;0.50;;
46080;SDS011;31821;51.880;-0.518;2022-08-04T15:15:02;1.40;;;0.73;;
46080;SDS011;31821;51.880;-0.518;2022-08-04T15:17:28;1.00;;;0.70;;
46080;SDS011;31821;51.880;-0.518;2022-08-04T15:19:55;1.10;;;0.70;;
46080;SDS011;31821;51.880;-0.518;2022-08-04T15:22:21;3.30;;;0.85;;
46080;SDS011;31821;51.880;-0.518;2022-08-04T15:24:46;0.75;;;0.60;;
46080;SDS011;31821;51.880;-0.518;2022-08-04T15:27:12;0.93;;;0.52;;
46080;SDS011;31821;51.880;-0.518;2022-08-04T15:29:40;0.90;;;0.60;;
46080;SDS011;31821;51.880;-0.518;2022-08-04T15:32:13;1.50;;;0.70;;
46080;SDS011;31821;51.880;-0.518;2022-08-04T15:34:46;1.02;;;0.63;;
46080;SDS011;31821;51.880;-0.518;2022-08-04T15:37:21;1.83;;;0.80;;
46080;SDS011;31821;51.880;-0.518;2022-08-04T15:40:26;5.03;;;0.80;;
46080;SDS011;31821;51.880;-0.518;2022-08-04T15:43:01;4.97;;;1.00;;
46080;SDS011;31821;51.880;-0.518;2022-08-04T15:45:47;1.02;;;0.70;;
46080;SDS011;31821;51.880;-0.518;2022-08-04T15:50:59;2.55;;;1.00;;
46080;SDS011;31821;51.880;-0.518;2022-08-04T15:53:31;1.30;;;0.60;;
46080;SDS011;31821;51.880;-0.518;2022-08-04T15:58:52;0.95;;;0.77;;
46080;SDS011;31821;51.880;-0.518;2022-08-04T16:01:19;2.38;;;0.90;;
46080;SDS011;31821;51.880;-0.518;2022-08-04T16:03:49;2.67;;;0.80;;
46080;SDS011;31821;51.880;-0.518;2022-08-04T16:19:02;1.35;;;0.80;;
46080;SDS011;31821;51.880;-0.518;2022-08-04T16:21:34;3.00;;;0.70;;
46080;SDS011;31821;51.880;-0.518;2022-08-04T16:24:18;4.63;;;0.80;;
46080;SDS011;31821;51.880;-0.518;2022-08-04T16:26:46;2.10;;;0.60;;
46080;SDS011;31821;51.880;-0.518;2022-08-04T16:32:12;1.65;;;0.70;;
46080;SDS011;31821;51.880;-0.518;2022-08-04T16:37:09;2.05;;;0.77;;
46080;SDS011;31821;51.880;-0.518;2022-08-04T16:39:36;1.05;;;0.68;;
46080;SDS011;31821;51.880;-0.518;2022-08-04T16:50:21;2.08;;;0.88;;
46080;SDS011;31821;51.880;-0.518;2022-08-04T16:52:52;1.90;;;0.60;;
46080;SDS011;31821;51.880;-0.518;2022-08-04T16:55:20;2.92;;;0.70;;
46080;SDS011;31821;51.880;-0.518;2022-08-04T16:57:47;2.45;;;0.70;;
46080;SDS011;31821;51.880;-0.518;2022-08-04T17:00:14;3.67;;;0.65;;
46080;SDS011;31821;51.880;-0.518;2022-08-04T17:02:41;0.88;;;0.60;;
46080;SDS011;31821;51.880;-0.518;2022-08-04T17:05:20;1.67;;;0.70;;
46080;SDS011;31821;51.880;-0.518;2022-08-04T17:07:47;0.68;;;0.50;;
46080;SDS011;31821;51.880;-0.518;2022-08-04T17:10:14;0.85;;;0.50;;
46080;SDS011;31821;51.880;-0.518;2022-08-04T17:12:40;0.98;;;0.60;;
46080;SDS011;31821;51.880;-0.518;2022-08-04T17:15:18;0.60;;;0.60;;
46080;SDS011;31821;51.880;-0.518;2022-08-04T17:17:47;1.95;;;0.60;;
46080;SDS011;31821;51.880;-0.518;2022-08-04T17:20:13;0.60;;;0.60;;
46080;SDS011;31821;51.880;-0.518;2022-08-04T17:22:39;2.03;;;0.70;;
46080;SDS011;31821;51.880;-0.518;2022-08-04T17:25:05;0.70;;;0.70;;
46080;SDS011;31821;51.880;-0.518;2022-08-04T17:27:31;0.50;;;0.50;;
46080;SDS011;31821;51.880;-0.518;2022-08-04T17:29:57;1.60;;;0.65;;
46080;SDS011;31821;51.880;-0.518;2022-08-04T17:32:23;1.13;;;0.80;;
46080;SDS011;31821;51.880;-0.518;2022-08-04T17:34:49;1.27;;;0.68;;
46080;SDS011;31821;51.880;-0.518;2022-08-04T17:37:17;0.70;;;0.60;;
46080;SDS011;31821;51.880;-0.518;2022-08-04T17:39:44;0.95;;;0.60;;
46080;SDS011;31821;51.880;-0.518;2022-08-04T17:42:13;0.63;;;0.60;;
46080;SDS011;31821;51.880;-0.518;2022-08-04T17:44:39;1.20;;;0.77;;
46080;SDS011;31821;51.880;-0.518;2022-08-04T17:47:17;1.25;;;0.60;;
46080;SDS011;31821;51.880;-0.518;2022-08-04T17:49:43;0.52;;;0.52;;
46080;SDS011;31821;51.880;-0.518;2022-08-04T17:52:09;1.15;;;0.60;;
46080;SDS011;31821;51.880;-0.518;2022-08-04T17:54:44;0.98;;;0.70;;
46080;SDS011;31821;51.880;-0.518;2022-08-04T17:59:50;0.60;;;0.60;;
46080;SDS011;31821;51.880;-0.518;2022-08-04T18:02:24;0.68;;;0.65;;
46080;SDS011;31821;51.880;-0.518;2022-08-04T18:04:51;0.60;;;0.60;;
46080;SDS011;31821;51.880;-0.518;2022-08-04T18:07:18;0.88;;;0.80;;
46080;SDS011;31821;51.880;-0.518;2022-08-04T18:12:28;0.80;;;0.60;;
46080;SDS011;31821;51.880;-0.518;2022-08-04T18:14:58;0.90;;;0.70;;
46080;SDS011;31821;51.880;-0.518;2022-08-04T18:20:05;0.82;;;0.60;;
46080;SDS011;31821;51.880;-0.518;2022-08-04T18:22:33;0.50;;;0.50;;
46080;SDS011;31821;51.880;-0.518;2022-08-04T18:24:59;1.00;;;0.70;;
46080;SDS011;31821;51.880;-0.518;2022-08-04T18:27:26;0.85;;;0.60;;
46080;SDS011;31821;51.880;-0.518;2022-08-04T18:29:53;0.77;;;0.70;;
46080;SDS011;31821;51.880;-0.518;2022-08-04T18:32:19;1.55;;;0.80;;
46080;SDS011;31821;51.880;-0.518;2022-08-04T18:34:48;1.30;;;0.60;;
46080;SDS011;31821;51.880;-0.518;2022-08-04T18:37:14;0.85;;;0.70;;
46080;SDS011;31821;51.880;-0.518;2022-08-04T18:39:39;0.85;;;0.60;;
46080;SDS011;31821;51.880;-0.518;2022-08-04T18:42:05;0.70;;;0.63;;
46080;SDS011;31821;51.880;-0.518;2022-08-04T18:44:31;0.70;;;0.57;;
46080;SDS011;31821;51.880;-0.518;2022-08-04T18:46:58;0.60;;;0.60;;
46080;SDS011;31821;51.880;-0.518;2022-08-04T18:49:24;0.57;;;0.57;;
46080;SDS011;31821;51.880;-0.518;2022-08-04T18:51:51;0.80;;;0.60;;
46080;SDS011;31821;51.880;-0.518;2022-08-04T18:54:18;0.73;;;0.60;;
46080;SDS011;31821;51.880;-0.518;2022-08-04T18:56:44;0.60;;;0.60;;
46080;SDS011;31821;51.880;-0.518;2022-08-04T18:59:10;0.57;;;0.57;;
46080;SDS011;31821;51.880;-0.518;2022-08-04T19:01:36;0.95;;;0.60;;
46080;SDS011;31821;51.880;-0.518;2022-08-04T19:04:02;1.17;;;0.50;;
46080;SDS011;31821;51.880;-0.518;2022-08-04T19:06:29;0.90;;;0.60;;
46080;SDS011;31821;51.880;-0.518;2022-08-04T19:08:55;0.70;;;0.60;;
46080;SDS011;31821;51.880;-0.518;2022-08-04T19:11:20;0.63;;;0.63;;
46080;SDS011;31821;51.880;-0.518;2022-08-04T19:13:46;0.60;;;0.60;;
46080;SDS011;31821;51.880;-0.518;2022-08-04T19:16:12;0.47;;;0.47;;
46080;SDS011;31821;51.880;-0.518;2022-08-04T19:18:37;0.60;;;0.60;;
46080;SDS011;31821;51.880;-0.518;2022-08-04T19:21:03;0.60;;;0.60;;
46080;SDS011;31821;51.880;-0.518;2022-08-04T19:23:29;0.85;;;0.60;;
46080;SDS011;31821;51.880;-0.518;2022-08-04T19:25:56;1.17;;;0.60;;